Time;durP1;ratioP1;P1;durP2;ratioP2;P2;SDS_P1;SDS_P2;PMS_P1;PMS_P2;Temp;Humidity;BMP_temperature;BMP_pressure;BME280_temperature;BME280_humidity;BME280_pressure;Samples;Min_cycle;Max_cycle;Signal;HPM_P1;HPM_P2
2023/08/17 00:00:13;;;;;;;;;;;;;;;;;;5028849;28;19925;-65
2023/08/17 00:02:39;;;;;;;;;;;;;;;;;;5033154;28;19924;-65
2023/08/17 00:05:08;;;;;;;;;;;;;;;;;;5042841;28;19931;-65
2023/08/17 00:07:34;;;;;;;;;;;;;;;;;;5030794;28;19928;-65
2023/08/17 00:10:00;;;;;;;;;;;;;;;;;;5032575;28;20012;-65
2023/08/17 00:12:26;;;;;;;;;;;;;;;;;;5027245;28;20011;-65
2023/08/17 00:14:52;;;;;;;;;;;;;;;;;;5041998;28;20089;-65
2023/08/17 00:17:18;;;;;;;;;;;;;;;;;;5038156;28;19925;-65
2023/08/17 00:19:44;;;;;;;;;;;;;;;;;;5042793;28;19949;-65
2023/08/17 00:22:10;;;;;;;;;;;;;;;;;;5035002;28;19925;-65
2023/08/17 00:24:36;;;;;;;;;;;;;;;;;;5038132;28;19932;-65
2023/08/17 00:27:03;;;;;;;;;;;;;;;;;;5036610;28;19924;-65
2023/08/17 00:29:29;;;;;;;;;;;;;;;;;;5035198;28;19925;-65
2023/08/17 00:31:55;;;;;;;;;;;;;;;;;;5038036;28;20350;-65
2023/08/17 00:34:21;;;;;;;;;;;;;;;;;;5029676;28;20438;-65
2023/08/17 00:36:47;;;;;;;;;;;;;;;;;;5028048;28;19925;-65
2023/08/17 00:39:12;;;;;;;;;;;;;;;;;;5025570;28;19936;-65
2023/08/17 00:41:38;;;;;;;;;;;;;;;;;;5038794;28;19931;-65
2023/08/17 00:44:04;;;;;;;;;;;;;;;;;;5042792;28;20509;-65
2023/08/17 00:46:30;;;;;;;;;;;;;;;;;;5039866;28;20453;-65
2023/08/17 00:48:56;;;;;;;;;;;;;;;;;;5041936;28;19925;-66
2023/08/17 00:51:23;;;;;;;;;;;;;;;;;;5020607;28;19929;-65
2023/08/17 00:53:49;;;;;;;;;;;;;;;;;;5039650;28;20410;-65
2023/08/17 00:56:15;;;;;;;;;;;;;;;;;;5039717;28;19925;-65
2023/08/17 00:58:41;;;;;;;;;;;;;;;;;;5045785;28;19928;-65
2023/08/17 01:01:07;;;;;;;;;;;;;;;;;;5031335;28;19932;-65
2023/08/17 01:03:33;;;;;;;;;;;;;;;;;;5029590;28;19929;-65
2023/08/17 01:05:59;;;;;;;;;;;;;;;;;;5106813;23;19925;-72
2023/08/17 01:08:25;;;;;;;;;;;;;;;;;;4992240;28;19926;-72
2023/08/17 01:10:51;;;;;;;;;;;;;;;;;;4974079;28;19929;-72
2023/08/17 01:13:17;;;;;;;;;;;;;;;;;;4980573;28;19932;-73
2023/08/17 01:15:42;;;;;;;;;;;;;;;;;;4993108;28;20030;-71
2023/08/17 01:18:08;;;;;;;;;;;;;;;;;;4984762;28;19932;-70
2023/08/17 01:20:34;;;;;;;;;;;;;;;;;;5004018;28;19926;-70
2023/08/17 01:23:00;;;;;;;;;;;;;;;;;;4981907;28;20009;-70
2023/08/17 01:25:26;;;;;;;;;;;;;;;;;;5004381;28;20017;-70
2023/08/17 01:27:52;;;;;;;;;;;;;;;;;;5004715;28;20180;-70
2023/08/17 01:30:18;;;;;;;;;;;;;;;;;;4987593;28;20563;-70
2023/08/17 01:32:44;;;;;;;;;;;;;;;;;;4998255;28;19925;-70
2023/08/17 01:35:10;;;;;;;;;;;;;;;;;;5000524;28;20658;-69
2023/08/17 01:37:36;;;;;;;;;;;;;;;;;;4996452;28;19988;-70
2023/08/17 01:40:02;;;;;;;;;;;;;;;;;;4996585;28;19929;-64
2023/08/17 01:42:28;;;;;;;;;;;;;;;;;;5005287;28;20024;-70
2023/08/17 01:44:54;;;;;;;;;;;;;;;;;;5001505;28;20348;-70
2023/08/17 01:47:19;;;;;;;;;;;;;;;;;;4985325;28;20402;-70
2023/08/17 01:49:45;;;;;;;;;;;;;;;;;;5001855;28;20023;-70
2023/08/17 01:52:11;;;;;;;;;;;;;;;;;;5000785;28;19936;-70
2023/08/17 01:54:37;;;;;;;;;;;;;;;;;;4984775;28;19926;-70
2023/08/17 01:57:03;;;;;;;;;;;;;;;;;;4995473;28;19936;-70
2023/08/17 01:59:29;;;;;;;;;;;;;;;;;;4992119;28;20366;-70
2023/08/17 02:01:55;;;;;;;;;;;;;;;;;;4994114;28;20839;-70
2023/08/17 02:04:21;;;;;;;;;;;;;;;;;;4992479;28;20028;-70
2023/08/17 02:06:47;;;;;;;;;;;;;;;;;;5002366;28;20012;-69
2023/08/17 02:09:13;;;;;;;;;;;;;;;;;;4994294;28;19925;-70
2023/08/17 02:11:39;;;;;;;;;;;;;;;;;;5002848;28;19928;-70
2023/08/17 02:14:05;;;;;;;;;;;;;;;;;;5002483;28;19972;-70
2023/08/17 02:16:31;;;;;;;;;;;;;;;;;;4993127;28;19956;-70
2023/08/17 02:18:57;;;;;;;;;;;;;;;;;;5002454;28;19932;-70
2023/08/17 02:21:22;;;;;;;;;;;;;;;;;;5002606;28;20016;-68
2023/08/17 02:23:48;;;;;;;;;;;;;;;;;;4999083;28;19926;-70
2023/08/17 02:26:14;;;;;;;;;;;;;;;;;;5004813;28;20331;-70
2023/08/17 02:28:40;;;;;;;;;;;;;;;;;;5000287;28;19973;-70
2023/08/17 02:31:06;;;;;;;;;;;;;;;;;;4998963;28;19976;-70
2023/08/17 02:33:33;;;;;;;;;;;;;;;;;;4993325;28;19953;-69
2023/08/17 02:35:59;;;;;;;;;;;;;;;;;;5001518;28;19971;-70
2023/08/17 02:38:25;;;;;;;;;;;;;;;;;;5001873;28;20000;-71
2023/08/17 02:40:51;;;;;;;;;;;;;;;;;;4998532;28;19961;-71
2023/08/17 02:43:17;;;;;;;;;;;;;;;;;;5004315;28;20407;-71
2023/08/17 02:45:43;;;;;;;;;;;;;;;;;;4994389;28;20406;-70
2023/08/17 02:48:09;;;;;;;;;;;;;;;;;;4997896;28;19972;-71
2023/08/17 02:50:34;;;;;;;;;;;;;;;;;;4992558;28;19926;-71
2023/08/17 02:53:01;;;;;;;;;;;;;;;;;;5002215;28;19925;-71
2023/08/17 02:55:27;;;;;;;;;;;;;;;;;;4998837;28;19929;-71
2023/08/17 02:57:53;;;;;;;;;;;;;;;;;;4999695;28;19933;-70
2023/08/17 03:00:19;;;;;;;;;;;;;;;;;;5000130;28;19926;-70
2023/08/17 03:02:45;;;;;;;;;;;;;;;;;;4999471;28;19933;-70
2023/08/17 03:05:11;;;;;;;;;;;;;;;;;;4981171;28;19932;-70
2023/08/17 03:07:37;;;;;;;;;;;;;;;;;;4992951;28;19926;-69
2023/08/17 03:10:03;;;;;;;;;;;;;;;;;;4999333;28;20493;-70
2023/08/17 03:12:29;;;;;;;;;;;;;;;;;;5002894;28;19932;-70
2023/08/17 03:14:55;;;;;;;;;;;;;;;;;;4997632;28;19930;-70
2023/08/17 03:17:20;;;;;;;;;;;;;;;;;;5000709;28;19932;-70
2023/08/17 03:19:46;;;;;;;;;;;;;;;;;;4999372;28;19952;-70
2023/08/17 03:22:12;;;;;;;;;;;;;;;;;;4998314;28;19929;-68
2023/08/17 03:24:38;;;;;;;;;;;;;;;;;;4992933;28;19952;-70
2023/08/17 03:27:04;;;;;;;;;;;;;;;;;;4992915;28;19932;-72
2023/08/17 03:29:30;;;;;;;;;;;;;;;;;;4990524;28;19956;-70
2023/08/17 03:31:56;;;;;;;;;;;;;;;;;;4999216;28;20355;-70
2023/08/17 03:34:22;;;;;;;;;;;;;;;;;;4993133;28;19933;-70
2023/08/17 03:36:48;;;;;;;;;;;;;;;;;;4992987;28;19929;-71
2023/08/17 03:39:14;;;;;;;;;;;;;;;;;;4998121;28;19926;-70
2023/08/17 03:41:40;;;;;;;;;;;;;;;;;;4994689;28;19980;-70
2023/08/17 03:44:07;;;;;;;;;;;;;;;;;;5000245;28;19929;-71
2023/08/17 03:46:33;;;;;;;;;;;;;;;;;;5003088;28;19930;-70
2023/08/17 03:48:59;;;;;;;;;;;;;;;;;;4998635;28;19973;-70
2023/08/17 03:51:25;;;;;;;;;;;;;;;;;;4999722;28;19967;-70
2023/08/17 03:53:52;;;;;;;;;;;;;;;;;;4994410;28;19926;-71
2023/08/17 03:56:18;;;;;;;;;;;;;;;;;;4996646;28;19926;-70
2023/08/17 03:58:44;;;;;;;;;;;;;;;;;;4997822;28;19926;-70
2023/08/17 04:01:11;;;;;;;;;;;;;;;;;;4999177;28;19926;-70
2023/08/17 04:03:37;;;;;;;;;;;;;;;;;;5001544;28;19926;-69
2023/08/17 04:06:03;;;;;;;;;;;;;;;;;;4997027;28;19933;-70
2023/08/17 04:08:29;;;;;;;;;;;;;;;;;;4973306;28;20498;-69
2023/08/17 04:10:54;;;;;;;;;;;;;;;;;;5001991;28;19929;-69
2023/08/17 04:13:20;;;;;;;;;;;;;;;;;;4981411;28;19926;-69
2023/08/17 04:15:46;;;;;;;;;;;;;;;;;;4999765;28;19925;-69
2023/08/17 04:18:12;;;;;;;;;;;;;;;;;;4995020;28;19973;-68
2023/08/17 04:20:38;;;;;;;;;;;;;;;;;;4998435;28;19926;-70
2023/08/17 04:23:04;;;;;;;;;;;;;;;;;;5000216;28;19926;-71
2023/08/17 04:25:30;;;;;;;;;;;;;;;;;;5000418;28;19933;-70
2023/08/17 04:27:56;;;;;;;;;;;;;;;;;;4993366;28;19926;-70
2023/08/17 04:30:22;;;;;;;;;;;;;;;;;;4992426;28;19934;-68
2023/08/17 04:32:52;;;;;;;;;;;;;;;;;;5001885;28;19930;-70
2023/08/17 04:35:17;;;;;;;;;;;;;;;;;;4984258;28;19933;-70
2023/08/17 04:37:43;;;;;;;;;;;;;;;;;;4989248;28;19980;-69
2023/08/17 04:40:10;;;;;;;;;;;;;;;;;;4987717;28;20358;-70
2023/08/17 04:42:35;;;;;;;;;;;;;;;;;;5006421;28;19977;-70
2023/08/17 04:45:01;;;;;;;;;;;;;;;;;;5005563;28;19976;-70
2023/08/17 04:47:27;;;;;;;;;;;;;;;;;;5003103;28;19944;-70
2023/08/17 04:49:53;;;;;;;;;;;;;;;;;;5004108;28;19925;-70
2023/08/17 04:52:19;;;;;;;;;;;;;;;;;;4981383;28;19932;-68
2023/08/17 04:54:45;;;;;;;;;;;;;;;;;;4985109;28;19982;-72
2023/08/17 04:57:11;;;;;;;;;;;;;;;;;;5006239;28;20479;-70
2023/08/17 04:59:37;;;;;;;;;;;;;;;;;;5004960;28;20383;-71
2023/08/17 05:02:03;;;;;;;;;;;;;;;;;;5005790;28;19930;-71
2023/08/17 05:04:29;;;;;;;;;;;;;;;;;;5006614;28;19925;-72
2023/08/17 05:06:55;;;;;;;;;;;;;;;;;;4999819;28;20227;-73
2023/08/17 05:09:21;;;;;;;;;;;;;;;;;;4999137;28;19926;-72
2023/08/17 05:11:47;;;;;;;;;;;;;;;;;;4988036;28;20016;-72
2023/08/17 05:14:13;;;;;;;;;;;;;;;;;;5005924;28;20350;-69
2023/08/17 05:16:39;;;;;;;;;;;;;;;;;;5005439;28;19932;-72
2023/08/17 05:19:05;;;;;;;;;;;;;;;;;;5001296;28;19922;-72
2023/08/17 05:21:31;;;;;;;;;;;;;;;;;;4988562;28;19926;-72
2023/08/17 05:23:57;;;;;;;;;;;;;;;;;;5005565;28;19925;-72
2023/08/17 05:26:22;;;;;;;;;;;;;;;;;;5005792;28;19936;-68
2023/08/17 05:28:48;;;;;;;;;;;;;;;;;;5005459;28;19929;-72
2023/08/17 05:31:14;;;;;;;;;;;;;;;;;;5005711;28;19932;-71
2023/08/17 05:33:40;;;;;;;;;;;;;;;;;;4998977;28;19926;-71
2023/08/17 05:36:06;;;;;;;;;;;;;;;;;;5005676;28;19933;-71
2023/08/17 05:38:32;;;;;;;;;;;;;;;;;;5005965;28;20214;-63
2023/08/17 05:40:58;;;;;;;;;;;;;;;;;;5006094;28;19976;-71
2023/08/17 05:43:24;;;;;;;;;;;;;;;;;;4988045;28;19933;-71
2023/08/17 05:45:50;;;;;;;;;;;;;;;;;;5004674;28;19925;-72
2023/08/17 05:48:16;;;;;;;;;;;;;;;;;;5005285;28;19935;-72
2023/08/17 05:50:42;;;;;;;;;;;;;;;;;;5004807;28;20343;-72
2023/08/17 05:53:08;;;;;;;;;;;;;;;;;;4993507;28;19987;-70
2023/08/17 05:55:34;;;;;;;;;;;;;;;;;;5005429;28;19929;-71
2023/08/17 05:58:00;;;;;;;;;;;;;;;;;;5001876;28;20850;-72
2023/08/17 06:00:25;;;;;;;;;;;;;;;;;;5004378;28;19988;-72
2023/08/17 06:02:51;;;;;;;;;;;;;;;;;;5003578;28;19956;-71
2023/08/17 06:05:17;;;;;;;;;;;;;;;;;;5005982;28;20011;-70
2023/08/17 06:07:43;;;;;;;;;;;;;;;;;;4995411;28;21305;-71
2023/08/17 06:10:09;;;;;;;;;;;;;;;;;;4995283;28;19969;-72
2023/08/17 06:12:36;;;;;;;;;;;;;;;;;;4990736;28;20075;-71
2023/08/17 06:15:02;;;;;;;;;;;;;;;;;;4992427;28;20037;-73
2023/08/17 06:17:28;;;;;;;;;;;;;;;;;;4998912;28;19948;-71
2023/08/17 06:19:54;;;;;;;;;;;;;;;;;;4996926;28;19980;-72
2023/08/17 06:22:20;;;;;;;;;;;;;;;;;;4985066;28;19926;-72
2023/08/17 06:24:46;;;;;;;;;;;;;;;;;;4999566;28;20381;-72
2023/08/17 06:27:12;;;;;;;;;;;;;;;;;;4996680;28;20342;-72
2023/08/17 06:29:38;;;;;;;;;;;;;;;;;;4997885;28;19934;-72
2023/08/17 06:32:04;;;;;;;;;;;;;;;;;;4997786;28;19922;-71
2023/08/17 06:34:30;;;;;;;;;;;;;;;;;;5002070;28;20376;-70
2023/08/17 06:36:56;;;;;;;;;;;;;;;;;;5001434;28;19969;-71
2023/08/17 06:39:22;;;;;;;;;;;;;;;;;;4993670;28;20199;-72
2023/08/17 06:41:48;;;;;;;;;;;;;;;;;;4994815;28;20009;-69
2023/08/17 06:44:14;;;;;;;;;;;;;;;;;;5000706;28;19925;-67
2023/08/17 06:46:40;;;;;;;;;;;;;;;;;;4994067;28;19968;-71
2023/08/17 06:49:08;;;;;;;;;;;;;;;;;;5002906;28;19925;-69
2023/08/17 06:51:34;;;;;;;;;;;;;;;;;;4983238;28;20029;-71
2023/08/17 06:54:00;;;;;;;;;;;;;;;;;;4999346;28;20017;-71
2023/08/17 06:56:26;;;;;;;;;;;;;;;;;;4999092;28;20635;-72
2023/08/17 06:58:52;;;;;;;;;;;;;;;;;;4992624;28;19940;-72
2023/08/17 07:01:18;;;;;;;;;;;;;;;;;;5002011;28;20622;-72
2023/08/17 07:03:43;;;;;;;;;;;;;;;;;;4995243;28;19930;-71
2023/08/17 07:06:09;;;;;;;;;;;;;;;;;;5003671;28;19969;-67
2023/08/17 07:08:35;;;;;;;;;;;;;;;;;;4990607;28;19967;-73
2023/08/17 07:11:03;;;;;;;;;;;;;;;;;;4993003;28;19926;-73
2023/08/17 07:13:29;;;;;;;;;;;;;;;;;;5001906;28;19929;-72
2023/08/17 07:15:55;;;;;;;;;;;;;;;;;;4998288;28;19926;-72
2023/08/17 07:18:21;;;;;;;;;;;;;;;;;;4998042;28;19936;-71
2023/08/17 07:20:47;;;;;;;;;;;;;;;;;;4984625;28;19937;-71
2023/08/17 07:23:12;;;;;;;;;;;;;;;;;;4995411;28;20382;-71
2023/08/17 07:25:38;;;;;;;;;;;;;;;;;;4993217;28;19929;-71
2023/08/17 07:28:04;;;;;;;;;;;;;;;;;;5002285;28;19922;-71
2023/08/17 07:30:31;;;;;;;;;;;;;;;;;;4990851;28;20085;-71
2023/08/17 07:32:56;;;;;;;;;;;;;;;;;;4985844;28;19921;-70
2023/08/17 07:35:22;;;;;;;;;;;;;;;;;;4989958;28;19934;-68
2023/08/17 07:37:49;;;;;;;;;;;;;;;;;;4997618;28;20367;-73
2023/08/17 07:40:15;;;;;;;;;;;;;;;;;;5002609;28;19968;-72
2023/08/17 07:42:41;;;;;;;;;;;;;;;;;;5000093;28;19989;-72
2023/08/17 07:45:07;;;;;;;;;;;;;;;;;;4995688;28;19926;-72
2023/08/17 07:47:33;;;;;;;;;;;;;;;;;;4999741;28;19936;-72
2023/08/17 07:49:59;;;;;;;;;;;;;;;;;;4990467;28;19930;-72
2023/08/17 07:52:25;;;;;;;;;;;;;;;;;;4991680;28;20613;-73
2023/08/17 07:54:51;;;;;;;;;;;;;;;;;;4994381;28;19929;-72
2023/08/17 07:57:17;;;;;;;;;;;;;;;;;;4967919;28;20226;-73
2023/08/17 07:59:42;;;;;;;;;;;;;;;;;;4980594;28;19936;-72
2023/08/17 08:02:08;;;;;;;;;;;;;;;;;;4998228;28;19976;-72
2023/08/17 08:04:34;;;;;;;;;;;;;;;;;;4996969;28;19929;-71
2023/08/17 08:07:00;;;;;;;;;;;;;;;;;;4995121;28;19926;-70
2023/08/17 08:09:26;;;;;;;;;;;;;;;;;;4994120;28;19930;-71
2023/08/17 08:11:52;;;;;;;;;;;;;;;;;;4998156;28;20306;-69
2023/08/17 08:14:18;;;;;;;;;;;;;;;;;;4990348;28;19937;-72
2023/08/17 08:16:44;;;;;;;;;;;;;;;;;;4996038;28;20579;-72
2023/08/17 08:19:10;;;;;;;;;;;;;;;;;;5000863;28;19929;-72
2023/08/17 08:21:36;;;;;;;;;;;;;;;;;;4997118;28;19956;-72
2023/08/17 08:24:02;;;;;;;;;;;;;;;;;;4997800;28;20021;-72
2023/08/17 08:26:28;;;;;;;;;;;;;;;;;;4998251;28;19937;-72
2023/08/17 08:28:54;;;;;;;;;;;;;;;;;;4993415;28;20138;-73
2023/08/17 08:31:20;;;;;;;;;;;;;;;;;;4995702;28;20900;-72
2023/08/17 08:33:46;;;;;;;;;;;;;;;;;;4994723;28;19933;-72
2023/08/17 08:36:11;;;;;;;;;;;;;;;;;;4991864;28;19953;-72
2023/08/17 08:38:37;;;;;;;;;;;;;;;;;;4986940;28;20625;-72
2023/08/17 08:41:03;;;;;;;;;;;;;;;;;;4989650;28;20032;-74
2023/08/17 08:43:29;;;;;;;;;;;;;;;;;;4992072;28;20024;-72
2023/08/17 08:45:55;;;;;;;;;;;;;;;;;;4988808;28;19952;-72
2023/08/17 08:48:21;;;;;;;;;;;;;;;;;;4992647;28;19965;-72
2023/08/17 08:50:49;;;;;;;;;;;;;;;;;;4984117;28;19977;-73
2023/08/17 08:53:15;;;;;;;;;;;;;;;;;;4988840;28;20336;-74
2023/08/17 08:55:41;;;;;;;;;;;;;;;;;;4986122;28;20650;-71
2023/08/17 08:58:07;;;;;;;;;;;;;;;;;;4987051;28;19926;-72
2023/08/17 09:00:33;;;;;;;;;;;;;;;;;;4993795;28;19929;-71
2023/08/17 09:02:58;;;;;;;;;;;;;;;;;;4999902;28;19933;-70
2023/08/17 09:05:24;;;;;;;;;;;;;;;;;;4990131;28;19937;-69
2023/08/17 09:07:50;;;;;;;;;;;;;;;;;;4985498;28;19934;-70
2023/08/17 09:10:16;;;;;;;;;;;;;;;;;;5002197;28;19956;-69
2023/08/17 09:12:42;;;;;;;;;;;;;;;;;;5003669;28;20023;-68
2023/08/17 09:15:09;;;;;;;;;;;;;;;;;;5000705;28;20387;-69
2023/08/17 09:17:34;;;;;;;;;;;;;;;;;;5003966;28;20417;-69
2023/08/17 09:20:00;;;;;;;;;;;;;;;;;;4985176;28;19926;-69
2023/08/17 09:22:26;;;;;;;;;;;;;;;;;;4998576;28;19930;-70
2023/08/17 09:24:52;;;;;;;;;;;;;;;;;;4996861;28;19930;-71
2023/08/17 09:27:18;;;;;;;;;;;;;;;;;;4994350;28;19929;-70
2023/08/17 09:29:45;;;;;;;;;;;;;;;;;;4987646;28;20406;-71
2023/08/17 09:32:11;;;;;;;;;;;;;;;;;;4990089;28;19925;-72
2023/08/17 09:34:37;;;;;;;;;;;;;;;;;;4997292;28;20353;-71
2023/08/17 09:37:04;;;;;;;;;;;;;;;;;;4998837;28;20677;-70
2023/08/17 09:39:30;;;;;;;;;;;;;;;;;;4985335;28;20024;-71
2023/08/17 09:41:56;;;;;;;;;;;;;;;;;;4995399;28;19925;-70
2023/08/17 09:44:22;;;;;;;;;;;;;;;;;;5000045;28;20036;-70
2023/08/17 09:46:47;;;;;;;;;;;;;;;;;;5002327;28;19925;-70
2023/08/17 09:49:13;;;;;;;;;;;;;;;;;;4999611;28;19937;-71
2023/08/17 09:51:39;;;;;;;;;;;;;;;;;;5002967;28;19933;-71
2023/08/17 09:54:05;;;;;;;;;;;;;;;;;;4997984;28;20315;-70
2023/08/17 09:56:31;;;;;;;;;;;;;;;;;;5002295;28;20387;-72
2023/08/17 09:58:57;;;;;;;;;;;;;;;;;;4998193;28;20048;-70
2023/08/17 10:01:23;;;;;;;;;;;;;;;;;;5001503;28;20418;-70
2023/08/17 10:03:49;;;;;;;;;;;;;;;;;;5002805;28;19930;-70
2023/08/17 10:06:15;;;;;;;;;;;;;;;;;;5000170;28;19929;-71
2023/08/17 10:08:41;;;;;;;;;;;;;;;;;;4988595;28;19935;-70
2023/08/17 10:11:09;;;;;;;;;;;;;;;;;;5001673;28;19936;-70
2023/08/17 10:13:35;;;;;;;;;;;;;;;;;;4997406;28;20419;-70
2023/08/17 10:16:01;;;;;;;;;;;;;;;;;;5002432;28;20017;-71
2023/08/17 10:18:27;;;;;;;;;;;;;;;;;;4997493;28;20067;-70
2023/08/17 10:20:53;;;;;;;;;;;;;;;;;;4985917;28;19930;-71
2023/08/17 10:23:19;;;;;;;;;;;;;;;;;;4993805;28;19933;-71
2023/08/17 10:25:45;;;;;;;;;;;;;;;;;;4992848;28;20337;-71
2023/08/17 10:28:11;;;;;;;;;;;;;;;;;;5002560;28;19931;-70
2023/08/17 10:30:37;;;;;;;;;;;;;;;;;;5001852;28;19932;-70
2023/08/17 10:33:03;;;;;;;;;;;;;;;;;;5002130;28;20047;-70
2023/08/17 10:35:29;;;;;;;;;;;;;;;;;;4997964;28;19937;-71
2023/08/17 10:37:55;;;;;;;;;;;;;;;;;;4998893;28;19926;-70
2023/08/17 10:40:21;;;;;;;;;;;;;;;;;;4998413;28;19926;-69
2023/08/17 10:42:47;;;;;;;;;;;;;;;;;;4998317;28;19961;-71
2023/08/17 10:45:13;;;;;;;;;;;;;;;;;;4991810;28;20718;-71
2023/08/17 10:47:39;;;;;;;;;;;;;;;;;;4994844;28;20008;-71
2023/08/17 10:50:05;;;;;;;;;;;;;;;;;;4993812;28;19999;-70
2023/08/17 10:52:31;;;;;;;;;;;;;;;;;;4991678;28;20529;-71
2023/08/17 10:54:57;;;;;;;;;;;;;;;;;;4996450;28;19926;-72
2023/08/17 10:57:23;;;;;;;;;;;;;;;;;;4998169;28;20036;-70
2023/08/17 10:59:49;;;;;;;;;;;;;;;;;;5000420;28;20008;-72
2023/08/17 11:02:15;;;;;;;;;;;;;;;;;;5001096;28;19929;-68
2023/08/17 11:04:41;;;;;;;;;;;;;;;;;;5000404;28;20028;-69
2023/08/17 11:07:08;;;;;;;;;;;;;;;;;;4994434;28;19926;-68
2023/08/17 11:09:34;;;;;;;;;;;;;;;;;;4996432;28;19949;-67
2023/08/17 11:12:00;;;;;;;;;;;;;;;;;;5002371;28;19925;-68
2023/08/17 11:14:26;;;;;;;;;;;;;;;;;;5000261;28;20443;-69
2023/08/17 11:16:52;;;;;;;;;;;;;;;;;;5000188;28;19929;-68
2023/08/17 11:19:17;;;;;;;;;;;;;;;;;;5003048;28;20331;-68
2023/08/17 11:21:43;;;;;;;;;;;;;;;;;;4998679;28;20426;-68
2023/08/17 11:24:09;;;;;;;;;;;;;;;;;;4998618;28;19937;-68
2023/08/17 11:26:35;;;;;;;;;;;;;;;;;;4998153;28;19973;-71
2023/08/17 11:29:01;;;;;;;;;;;;;;;;;;5002734;28;19961;-70
2023/08/17 11:31:27;;;;;;;;;;;;;;;;;;5003746;28;20516;-69
2023/08/17 11:33:53;;;;;;;;;;;;;;;;;;5001295;28;19936;-72
2023/08/17 11:36:21;;;;;;;;;;;;;;;;;;4998891;28;20032;-70
2023/08/17 11:38:47;;;;;;;;;;;;;;;;;;4998193;28;20185;-71
2023/08/17 11:41:14;;;;;;;;;;;;;;;;;;4998370;28;20491;-70
2023/08/17 11:43:40;;;;;;;;;;;;;;;;;;4999655;28;20473;-70
2023/08/17 11:46:06;;;;;;;;;;;;;;;;;;4992448;28;19925;-70
2023/08/17 11:48:32;;;;;;;;;;;;;;;;;;5001626;28;19984;-69
2023/08/17 11:50:58;;;;;;;;;;;;;;;;;;4999126;28;20458;-70
2023/08/17 11:53:25;;;;;;;;;;;;;;;;;;4995092;28;19933;-68
2023/08/17 11:55:51;;;;;;;;;;;;;;;;;;4998378;28;20022;-68
2023/08/17 11:58:17;;;;;;;;;;;;;;;;;;5001953;28;20016;-67
2023/08/17 12:00:44;;;;;;;;;;;;;;;;;;5002258;28;19937;-68
2023/08/17 12:03:10;;;;;;;;;;;;;;;;;;5002517;28;19980;-68
2023/08/17 12:05:36;;;;;;;;;;;;;;;;;;5002027;28;19961;-68
2023/08/17 12:08:02;;;;;;;;;;;;;;;;;;5001273;28;19930;-69
2023/08/17 12:10:28;;;;;;;;;;;;;;;;;;5000542;28;19932;-67
2023/08/17 12:12:54;;;;;;;;;;;;;;;;;;4986146;28;20367;-69
2023/08/17 12:15:20;;;;;;;;;;;;;;;;;;5000237;28;20276;-72
2023/08/17 12:17:46;;;;;;;;;;;;;;;;;;4997871;28;19926;-70
2023/08/17 12:20:12;;;;;;;;;;;;;;;;;;4991488;28;20427;-71
2023/08/17 12:22:38;;;;;;;;;;;;;;;;;;4997442;28;19926;-72
2023/08/17 12:25:04;;;;;;;;;;;;;;;;;;4997266;28;19932;-72
2023/08/17 12:27:29;;;;;;;;;;;;;;;;;;4988037;28;19929;-72
2023/08/17 12:29:55;;;;;;;;;;;;;;;;;;4984755;28;19926;-72
2023/08/17 12:32:21;;;;;;;;;;;;;;;;;;4984468;28;20418;-72
2023/08/17 12:34:48;;;;;;;;;;;;;;;;;;4981809;28;19926;-73
2023/08/17 12:37:14;;;;;;;;;;;;;;;;;;4979794;28;19933;-71
2023/08/17 12:39:39;;;;;;;;;;;;;;;;;;5000155;28;19921;-72
2023/08/17 12:42:05;;;;;;;;;;;;;;;;;;4999455;28;19940;-72
2023/08/17 12:44:31;;;;;;;;;;;;;;;;;;5003539;28;20387;-71
2023/08/17 12:46:57;;;;;;;;;;;;;;;;;;5003266;28;20016;-71
2023/08/17 12:49:23;;;;;;;;;;;;;;;;;;5004924;28;20084;-69
2023/08/17 12:51:49;;;;;;;;;;;;;;;;;;5001193;28;20032;-71
2023/08/17 12:54:15;;;;;;;;;;;;;;;;;;5000898;28;20395;-70
2023/08/17 12:56:41;;;;;;;;;;;;;;;;;;5003662;28;20419;-70
2023/08/17 12:59:07;;;;;;;;;;;;;;;;;;4992948;28;20013;-70
2023/08/17 13:01:33;;;;;;;;;;;;;;;;;;5006435;28;20051;-70
2023/08/17 13:03:59;;;;;;;;;;;;;;;;;;5004541;28;19929;-69
2023/08/17 13:06:25;;;;;;;;;;;;;;;;;;5001456;28;19925;-70
2023/08/17 13:08:51;;;;;;;;;;;;;;;;;;4993876;28;19925;-69
2023/08/17 13:11:16;;;;;;;;;;;;;;;;;;5004907;28;19925;-69
2023/08/17 13:13:42;;;;;;;;;;;;;;;;;;5002190;28;20696;-71
2023/08/17 13:16:08;;;;;;;;;;;;;;;;;;5003446;28;20730;-71
2023/08/17 13:18:34;;;;;;;;;;;;;;;;;;5002006;28;19921;-71
2023/08/17 13:21:00;;;;;;;;;;;;;;;;;;5005731;28;20402;-70
2023/08/17 13:23:26;;;;;;;;;;;;;;;;;;5001149;28;20643;-70
2023/08/17 13:25:52;;;;;;;;;;;;;;;;;;4998645;28;19933;-70
2023/08/17 13:28:18;;;;;;;;;;;;;;;;;;4998011;28;20347;-71
2023/08/17 13:30:44;;;;;;;;;;;;;;;;;;4995288;28;19925;-71
2023/08/17 13:33:10;;;;;;;;;;;;;;;;;;4997528;28;19937;-71
2023/08/17 13:35:36;;;;;;;;;;;;;;;;;;4993511;28;19969;-71
2023/08/17 13:38:04;;;;;;;;;;;;;;;;;;4987091;28;20583;-71
2023/08/17 13:40:29;;;;;;;;;;;;;;;;;;4987752;28;20040;-71
2023/08/17 13:42:55;;;;;;;;;;;;;;;;;;4992355;28;20376;-70
2023/08/17 13:45:21;;;;;;;;;;;;;;;;;;5003073;28;19933;-70
2023/08/17 13:47:47;;;;;;;;;;;;;;;;;;5002322;28;19925;-70
2023/08/17 13:50:13;;;;;;;;;;;;;;;;;;5001399;28;20004;-70
2023/08/17 13:52:39;;;;;;;;;;;;;;;;;;4998943;28;19932;-71
2023/08/17 13:55:05;;;;;;;;;;;;;;;;;;5002019;28;20008;-71
2023/08/17 13:57:31;;;;;;;;;;;;;;;;;;4993654;28;20017;-70
2023/08/17 13:59:57;;;;;;;;;;;;;;;;;;4997844;28;20007;-70
2023/08/17 14:02:23;;;;;;;;;;;;;;;;;;5001633;28;19944;-69
2023/08/17 14:04:49;;;;;;;;;;;;;;;;;;5002105;28;19925;-70
2023/08/17 14:07:15;;;;;;;;;;;;;;;;;;4993383;28;20384;-71
2023/08/17 14:09:41;;;;;;;;;;;;;;;;;;4997571;28;19931;-71
2023/08/17 14:12:07;;;;;;;;;;;;;;;;;;5002942;28;20037;-70
2023/08/17 14:14:33;;;;;;;;;;;;;;;;;;5000957;28;20458;-71
2023/08/17 14:16:59;;;;;;;;;;;;;;;;;;4999287;28;19926;-71
2023/08/17 14:19:24;;;;;;;;;;;;;;;;;;4997272;28;19930;-70
2023/08/17 14:21:52;;;;;;;;;;;;;;;;;;4995376;28;19933;-70
2023/08/17 14:24:18;;;;;;;;;;;;;;;;;;5005419;28;19925;-70
2023/08/17 14:26:44;;;;;;;;;;;;;;;;;;4996635;28;19984;-69
2023/08/17 14:29:10;;;;;;;;;;;;;;;;;;4993972;28;20004;-71
2023/08/17 14:31:36;;;;;;;;;;;;;;;;;;4995762;28;20375;-71
2023/08/17 14:34:01;;;;;;;;;;;;;;;;;;4990258;28;19936;-69
2023/08/17 14:36:27;;;;;;;;;;;;;;;;;;4986851;28;19932;-70
2023/08/17 14:38:53;;;;;;;;;;;;;;;;;;4999036;28;19929;-69
2023/08/17 14:41:19;;;;;;;;;;;;;;;;;;4993261;28;19949;-69
2023/08/17 14:43:45;;;;;;;;;;;;;;;;;;5001086;28;19973;-69
2023/08/17 14:46:11;;;;;;;;;;;;;;;;;;5004864;28;20280;-70
2023/08/17 14:48:37;;;;;;;;;;;;;;;;;;4999578;28;20375;-69
2023/08/17 14:51:03;;;;;;;;;;;;;;;;;;4998998;28;19929;-70
2023/08/17 14:53:29;;;;;;;;;;;;;;;;;;4997907;28;19922;-70
2023/08/17 14:55:55;;;;;;;;;;;;;;;;;;4994544;28;19925;-69
2023/08/17 14:58:21;;;;;;;;;;;;;;;;;;4996871;28;19967;-69
2023/08/17 15:00:47;;;;;;;;;;;;;;;;;;5002016;28;19921;-69
2023/08/17 15:03:13;;;;;;;;;;;;;;;;;;5002736;28;19936;-70
2023/08/17 15:05:39;;;;;;;;;;;;;;;;;;4998473;28;20359;-72
2023/08/17 15:08:05;;;;;;;;;;;;;;;;;;4988731;28;20015;-71
2023/08/17 15:10:32;;;;;;;;;;;;;;;;;;5003751;28;19976;-71
2023/08/17 15:12:58;;;;;;;;;;;;;;;;;;5000437;28;20406;-71
2023/08/17 15:15:24;;;;;;;;;;;;;;;;;;4999487;28;19926;-71
2023/08/17 15:17:50;;;;;;;;;;;;;;;;;;4998241;28;19932;-69
2023/08/17 15:20:16;;;;;;;;;;;;;;;;;;5000479;28;19925;-70
2023/08/17 15:22:42;;;;;;;;;;;;;;;;;;4997550;28;19979;-71
2023/08/17 15:25:07;;;;;;;;;;;;;;;;;;4996425;28;19925;-73
2023/08/17 15:27:33;;;;;;;;;;;;;;;;;;5001013;28;20406;-73
2023/08/17 15:29:59;;;;;;;;;;;;;;;;;;4997551;28;20415;-73
2023/08/17 15:32:25;;;;;;;;;;;;;;;;;;4990543;28;20020;-71
2023/08/17 15:34:51;;;;;;;;;;;;;;;;;;4986175;28;20422;-72
2023/08/17 15:37:17;;;;;;;;;;;;;;;;;;4986539;28;19926;-70
2023/08/17 15:39:43;;;;;;;;;;;;;;;;;;4993817;28;19980;-70
2023/08/17 15:42:09;;;;;;;;;;;;;;;;;;5000941;28;19932;-71
2023/08/17 15:44:37;;;;;;;;;;;;;;;;;;5001844;28;20156;-71
2023/08/17 15:47:03;;;;;;;;;;;;;;;;;;5001885;28;19961;-71
2023/08/17 15:49:29;;;;;;;;;;;;;;;;;;5000492;28;19986;-70
2023/08/17 15:51:55;;;;;;;;;;;;;;;;;;4998711;28;19986;-71
2023/08/17 15:54:20;;;;;;;;;;;;;;;;;;4980001;28;20350;-70
2023/08/17 15:56:46;;;;;;;;;;;;;;;;;;4984416;28;19925;-71
2023/08/17 15:59:12;;;;;;;;;;;;;;;;;;4995386;28;19972;-70
2023/08/17 16:01:38;;;;;;;;;;;;;;;;;;5002471;28;19925;-71
2023/08/17 16:04:04;;;;;;;;;;;;;;;;;;4998915;28;19926;-71
2023/08/17 16:06:30;;;;;;;;;;;;;;;;;;4998545;28;19929;-71
2023/08/17 16:08:56;;;;;;;;;;;;;;;;;;4990820;28;20406;-71
2023/08/17 16:11:22;;;;;;;;;;;;;;;;;;5002122;28;20017;-70
2023/08/17 16:13:48;;;;;;;;;;;;;;;;;;4999546;28;19960;-71
2023/08/17 16:16:14;;;;;;;;;;;;;;;;;;5001385;28;19926;-71
2023/08/17 16:18:40;;;;;;;;;;;;;;;;;;4996239;28;20184;-71
2023/08/17 16:21:06;;;;;;;;;;;;;;;;;;4996861;28;19926;-73
2023/08/17 16:23:31;;;;;;;;;;;;;;;;;;4993862;28;19930;-72
2023/08/17 16:25:57;;;;;;;;;;;;;;;;;;4996121;28;19926;-71
2023/08/17 16:28:23;;;;;;;;;;;;;;;;;;4988718;28;19934;-70
2023/08/17 16:30:49;;;;;;;;;;;;;;;;;;4992831;28;19929;-71
2023/08/17 16:33:15;;;;;;;;;;;;;;;;;;4995202;28;19953;-71
2023/08/17 16:35:41;;;;;;;;;;;;;;;;;;4991697;28;19925;-70